KARM

Wharton Regional Airport

Wharton, Texas, USA
METAR KARM 231055Z AUTO 00000KT 10SM CLR 03/01 A3022 RMK AO2 T00340012
Observed Flight Rules
Jan-23 @ 10:55 UTC (50 minutes ago) Visual Flight Rules
Wind Visibility Clouds
Calm 10 miles
  • Clear skies
Temperatures Readings
Current 3°C / 37°F
Dewpoint 1°C / 34°F
Humidity 87%
Altimeter 30.22" Hg
Pressure 1023 hPa
Elevation 31
METAR KARM 231055Z AUTO 00000KT 10SM CLR 03/01 A3022 RMK AO2 T00340012
Observed Flight Rules
Jan-23 @ 10:55 UTC
(50 minutes ago)
VFR
Wind Visibility
Calm 10 miles
Clouds
  • Clear skies
Temperature Dewpoint
3°C / 37°F 1°C / 34°F
Humidity Altimeter Pressure
87% 30.22" Hg 1023 hPa